Time;durP1;ratioP1;P1;durP2;ratioP2;P2;SDS_P1;SDS_P2;PMS_P1;PMS_P2;Temp;Humidity;BMP_temperature;BMP_pressure;BME280_temperature;BME280_humidity;BME280_pressure;Samples;Min_cycle;Max_cycle;Signal;HPM_P1;HPM_P2
2022/05/04 10:10:25;;;;;;;6.25;5.30;;;;;;;;;;5062308;23;20067;-89
2022/05/04 10:12:51;;;;;;;8.15;5.80;;;;;;;;;;4919326;29;20439;-87
2022/05/04 10:15:18;;;;;;;6.75;5.30;;;;;;;;;;4919662;29;20028;-88
2022/05/04 10:17:53;;;;;;;6.53;5.80;;;;;;;;;;4908528;29;20025;-94
2022/05/04 10:20:21;;;;;;;8.30;4.93;;;;;;;;;;4900214;29;20037;-90
2022/05/04 10:23:02;;;;;;;5.88;5.22;;;;;;;;;;4898441;29;20043;-90
2022/05/04 10:25:33;;;;;;;20.83;6.80;;;;;;;;;;4901074;29;20024;-91
2022/05/04 10:28:14;;;;;;;5.72;5.22;;;;;;;;;;4898349;29;20085;-89
2022/05/04 10:30:53;;;;;;;5.80;5.20;;;;;;;;;;4898843;29;20052;-93
2022/05/04 10:33:23;;;;;;;5.45;5.05;;;;;;;;;;4900123;29;20025;-94
2022/05/04 10:35:49;;;;;;;6.20;5.43;;;;;;;;;;4900440;29;20028;-95
2022/05/04 10:38:29;;;;;;;5.43;4.93;;;;;;;;;;4900264;29;20168;-92
2022/05/04 10:41:02;;;;;;;6.10;5.50;;;;;;;;;;4898840;29;20483;-92
2022/05/04 10:43:47;;;;;;;6.25;5.50;;;;;;;;;;4903817;29;20062;-87
2022/05/04 10:46:23;;;;;;;5.75;5.25;;;;;;;;;;4899998;29;20033;-91
2022/05/04 10:48:55;;;;;;;5.82;5.35;;;;;;;;;;4899755;29;20104;-83
2022/05/04 10:51:24;;;;;;;6.43;5.38;;;;;;;;;;4888227;29;20025;-90
2022/05/04 10:53:58;;;;;;;6.95;5.15;;;;;;;;;;4880810;29;20029;-90
2022/05/04 10:56:26;;;;;;;5.80;5.20;;;;;;;;;;4880764;29;20033;-95
2022/05/04 10:58:54;;;;;;;7.28;5.28;;;;;;;;;;4883929;29;20029;-94
2022/05/04 11:01:35;;;;;;;7.72;5.53;;;;;;;;;;4884507;29;20029;-94
2022/05/04 11:04:13;;;;;;;8.30;5.38;;;;;;;;;;4880984;29;20029;-93
2022/05/04 11:06:45;;;;;;;4.97;4.57;;;;;;;;;;4882964;29;20403;-91
2022/05/04 11:09:11;;;;;;;6.45;5.13;;;;;;;;;;4895843;29;20036;-94
2022/05/04 11:11:42;;;;;;;5.82;4.93;;;;;;;;;;4899842;29;20070;-86
2022/05/04 11:14:12;;;;;;;6.40;5.15;;;;;;;;;;4899731;29;20033;-95
2022/05/04 11:16:39;;;;;;;5.80;5.18;;;;;;;;;;4899218;29;20490;-92
2022/05/04 11:19:06;;;;;;;6.45;4.93;;;;;;;;;;4899528;29;20039;-91
2022/05/04 11:21:33;;;;;;;5.40;4.90;;;;;;;;;;4900579;29;20095;-93
2022/05/04 11:24:00;;;;;;;8.40;5.30;;;;;;;;;;4900364;29;20036;-89
2022/05/04 11:26:34;;;;;;;6.55;5.10;;;;;;;;;;4899625;29;20040;-86
2022/05/04 11:28:59;;;;;;;6.75;6.00;;;;;;;;;;4899874;29;20025;-88
2022/05/04 11:31:25;;;;;;;6.15;5.55;;;;;;;;;;4900071;29;20472;-91
2022/05/04 11:33:50;;;;;;;6.97;5.70;;;;;;;;;;4900253;29;20412;-92
2022/05/04 11:36:21;;;;;;;7.47;5.65;;;;;;;;;;4899709;29;20048;-89
2022/05/04 11:38:47;;;;;;;6.10;5.50;;;;;;;;;;4899716;29;20033;-91
2022/05/04 11:41:14;;;;;;;6.80;5.85;;;;;;;;;;4899794;29;20032;-92
2022/05/04 11:43:40;;;;;;;10.35;5.68;;;;;;;;;;4901602;29;20029;-91
2022/05/04 11:46:09;;;;;;;6.05;5.45;;;;;;;;;;4901130;29;20017;-92
2022/05/04 11:48:37;;;;;;;7.13;5.60;;;;;;;;;;4901369;29;20059;-91
2022/05/04 11:51:04;;;;;;;5.80;5.15;;;;;;;;;;4900196;29;20029;-90
2022/05/04 11:53:30;;;;;;;9.15;6.18;;;;;;;;;;4900052;29;20037;-89
2022/05/04 11:55:59;;;;;;;6.82;6.13;;;;;;;;;;4899003;29;20031;-88
2022/05/04 11:58:29;;;;;;;6.55;5.47;;;;;;;;;;4898431;29;20490;-84
2022/05/04 12:00:55;;;;;;;6.00;5.28;;;;;;;;;;4898556;29;20037;-88
2022/05/04 12:03:21;;;;;;;6.63;5.75;;;;;;;;;;4900706;29;20107;-88
2022/05/04 12:05:48;;;;;;;7.25;6.43;;;;;;;;;;4902293;29;20032;-84
2022/05/04 12:08:17;;;;;;;9.15;6.63;;;;;;;;;;4902161;29;20028;-86
2022/05/04 12:10:42;;;;;;;7.70;6.10;;;;;;;;;;4901913;29;20045;-83
2022/05/04 12:13:08;;;;;;;8.98;6.50;;;;;;;;;;4901989;29;20036;-86
2022/05/04 12:15:34;;;;;;;9.25;7.57;;;;;;;;;;4902437;29;20072;-85
2022/05/04 12:18:00;;;;;;;9.35;7.57;;;;;;;;;;4884052;29;20037;-89
2022/05/04 12:20:27;;;;;;;8.18;7.10;;;;;;;;;;4882882;29;20689;-91
2022/05/04 12:22:54;;;;;;;8.43;7.20;;;;;;;;;;4882579;29;20120;-84
2022/05/04 12:25:21;;;;;;;8.57;7.68;;;;;;;;;;4882592;29;20384;-88
2022/05/04 12:27:47;;;;;;;9.63;8.63;;;;;;;;;;4882796;29;20036;-87
2022/05/04 12:33:08;;;;;;;11.32;8.05;;;;;;;;;;4882441;29;20047;-86
2022/05/04 12:35:44;;;;;;;11.93;7.90;;;;;;;;;;4882431;29;20028;-86
2022/05/04 12:38:15;;;;;;;9.52;7.75;;;;;;;;;;4882394;29;20044;-86
2022/05/04 12:40:41;;;;;;;11.75;8.02;;;;;;;;;;4881154;29;20032;-83
2022/05/04 12:43:07;;;;;;;8.60;7.68;;;;;;;;;;4882411;29;20117;-84
2022/05/04 12:45:36;;;;;;;9.23;8.10;;;;;;;;;;4880886;29;20033;-84
2022/05/04 12:48:04;;;;;;;;;;;;;;;;;;4889822;29;20416;-85
2022/05/04 12:50:29;;;;;;;9.20;7.30;;;;;;;;;;4890750;29;20363;-84
2022/05/04 12:52:56;;;;;;;7.80;7.00;;;;;;;;;;4892623;29;20031;-84
2022/05/04 12:58:08;;;;;;;30.63;9.30;;;;;;;;;;4887359;29;20523;-82
2022/05/04 13:00:34;;;;;;;50.97;10.80;;;;;;;;;;4882353;29;20050;-92
2022/05/04 13:02:59;;;;;;;31.63;9.63;;;;;;;;;;4882535;29;20073;-91
2022/05/04 13:05:25;;;;;;;16.95;8.18;;;;;;;;;;4882502;29;20112;-85
2022/05/04 13:07:50;;;;;;;9.10;7.30;;;;;;;;;;4880429;29;20061;-82
2022/05/04 13:10:16;;;;;;;9.82;7.35;;;;;;;;;;4880519;29;20041;-83
2022/05/04 13:12:41;;;;;;;7.65;6.82;;;;;;;;;;4881761;29;20037;-90
2022/05/04 13:15:07;;;;;;;7.60;6.90;;;;;;;;;;4881675;29;20056;-83
2022/05/04 17:22:07;;;;;;;5.27;4.77;;;;;;;;;;4898769;29;20060;-92
2022/05/04 17:24:32;;;;;;;6.22;4.68;;;;;;;;;;4916284;29;20028;-92
2022/05/04 17:26:58;;;;;;;6.80;5.82;;;;;;;;;;4901289;29;20043;-92
2022/05/04 17:29:25;;;;;;;7.75;5.40;;;;;;;;;;4900073;29;20037;-92
2022/05/04 17:37:19;;;;;;;6.90;4.95;;;;;;;;;;4920502;29;20542;-90
2022/05/04 17:39:57;;;;;;;6.20;5.60;;;;;;;;;;4914065;23;20052;-87
2022/05/04 17:42:26;;;;;;;5.07;4.57;;;;;;;;;;4926698;23;20076;-89
2022/05/04 17:45:21;;;;;;;4.85;4.40;;;;;;;;;;4927259;23;20148;-89
2022/05/04 17:47:48;;;;;;;4.72;4.32;;;;;;;;;;4918131;29;20392;-89
2022/05/04 17:50:13;;;;;;;5.72;4.22;;;;;;;;;;4906135;29;20032;-89
2022/05/04 17:52:41;;;;;;;5.13;4.35;;;;;;;;;;4901547;29;20028;-89
2022/05/04 17:55:10;;;;;;;4.57;4.18;;;;;;;;;;4901210;29;20480;-90
2022/05/04 17:57:36;;;;;;;5.20;4.65;;;;;;;;;;4900074;29;20093;-92
2022/05/04 18:00:05;;;;;;;6.45;4.60;;;;;;;;;;4899678;29;20024;-90
2022/05/04 18:05:14;;;;;;;4.72;4.32;;;;;;;;;;4900558;29;20080;-89
2022/05/04 18:07:39;;;;;;;5.68;5.05;;;;;;;;;;4900616;29;20433;-91
2022/05/04 18:10:05;;;;;;;7.25;5.20;;;;;;;;;;4899036;29;20066;-92
2022/05/04 18:12:31;;;;;;;6.70;5.53;;;;;;;;;;4899807;29;20115;-91
2022/05/04 18:14:57;;;;;;;7.25;6.28;;;;;;;;;;4899950;29;20051;-89
2022/05/04 18:17:23;;;;;;;6.10;5.25;;;;;;;;;;4902705;29;20033;-89
2022/05/04 18:19:53;;;;;;;6.03;5.28;;;;;;;;;;4919575;23;20049;-89
2022/05/04 18:22:24;;;;;;;6.15;5.55;;;;;;;;;;4924706;29;20031;-88
2022/05/04 18:25:23;;;;;;;5.50;5.00;;;;;;;;;;4929832;23;21068;-89
2022/05/04 18:27:53;;;;;;;8.93;5.35;;;;;;;;;;4923541;29;20052;-91
2022/05/04 18:30:18;;;;;;;5.03;4.55;;;;;;;;;;4909394;29;20134;-89
2022/05/04 18:32:45;;;;;;;7.15;5.72;;;;;;;;;;4906027;29;20070;-90
2022/05/04 18:35:16;;;;;;;7.53;5.15;;;;;;;;;;4924577;23;20040;-90
2022/05/04 18:37:41;;;;;;;5.10;4.60;;;;;;;;;;4924666;29;20091;-90
2022/05/04 18:40:09;;;;;;;4.68;4.28;;;;;;;;;;4906135;29;20029;-89
2022/05/04 18:42:34;;;;;;;8.73;4.57;;;;;;;;;;4899759;29;20483;-90
2022/05/04 18:45:00;;;;;;;6.95;5.95;;;;;;;;;;4901206;29;20032;-89
2022/05/04 18:47:26;;;;;;;7.97;6.43;;;;;;;;;;4900597;29;20060;-90
2022/05/04 18:49:51;;;;;;;8.43;6.70;;;;;;;;;;4903768;29;20028;-90
2022/05/04 18:52:17;;;;;;;10.75;8.38;;;;;;;;;;4903737;29;20032;-89
2022/05/04 18:54:44;;;;;;;6.05;5.45;;;;;;;;;;4899454;29;20031;-90
2022/05/04 18:57:09;;;;;;;8.70;5.32;;;;;;;;;;4899084;29;20025;-89
2022/05/04 18:59:36;;;;;;;6.50;5.70;;;;;;;;;;4899031;29;20047;-88
2022/05/04 19:02:02;;;;;;;5.88;5.30;;;;;;;;;;4898879;29;20032;-91
2022/05/04 19:04:27;;;;;;;5.70;5.07;;;;;;;;;;4898722;29;20044;-90
2022/05/04 19:06:52;;;;;;;5.47;4.60;;;;;;;;;;4897681;29;20024;-91
2022/05/04 19:09:18;;;;;;;6.05;4.82;;;;;;;;;;4897296;29;20131;-90
2022/05/04 19:11:43;;;;;;;5.20;4.70;;;;;;;;;;4900040;29;20024;-91
2022/05/04 19:14:09;;;;;;;6.18;4.57;;;;;;;;;;4908257;29;20036;-95
2022/05/04 19:16:34;;;;;;;5.80;5.18;;;;;;;;;;4917634;29;20025;-90
2022/05/04 19:19:02;;;;;;;7.40;4.88;;;;;;;;;;4904287;29;20036;-90
2022/05/04 19:21:27;;;;;;;5.78;5.28;;;;;;;;;;4902370;29;20032;-87
2022/05/04 19:23:52;;;;;;;6.13;4.80;;;;;;;;;;4904310;29;20024;-87
2022/05/04 19:26:19;;;;;;;6.00;5.25;;;;;;;;;;4905014;29;20038;-91
2022/05/04 19:28:44;;;;;;;5.60;4.70;;;;;;;;;;4903647;29;20024;-91
2022/05/04 19:31:10;;;;;;;5.72;5.13;;;;;;;;;;4904044;29;20088;-87
2022/05/04 19:33:35;;;;;;;7.85;5.45;;;;;;;;;;4903393;29;20028;-91
2022/05/04 19:36:00;;;;;;;5.93;5.43;;;;;;;;;;4903765;29;20045;-92
2022/05/04 19:38:26;;;;;;;5.20;4.80;;;;;;;;;;4904071;29;20032;-91
2022/05/04 19:40:51;;;;;;;7.18;6.25;;;;;;;;;;4905197;29;20025;-89
2022/05/04 19:43:17;;;;;;;6.80;5.95;;;;;;;;;;4903521;29;20029;-89
2022/05/04 19:45:43;;;;;;;5.40;4.75;;;;;;;;;;4904875;29;20032;-90
2022/05/04 19:48:09;;;;;;;5.55;5.00;;;;;;;;;;4904885;29;20435;-90
2022/05/04 19:50:35;;;;;;;6.85;5.10;;;;;;;;;;4904667;29;20028;-90
2022/05/04 19:53:00;;;;;;;7.90;5.28;;;;;;;;;;4903430;29;20029;-90
2022/05/04 19:55:25;;;;;;;6.40;4.70;;;;;;;;;;4908101;29;20404;-90
2022/05/04 19:57:51;;;;;;;6.55;5.88;;;;;;;;;;4917072;29;20387;-89
2022/05/04 20:00:17;;;;;;;7.18;5.85;;;;;;;;;;4905538;29;20034;-89
2022/05/04 20:02:43;;;;;;;5.68;4.72;;;;;;;;;;4904612;29;20464;-89
2022/05/04 20:05:08;;;;;;;5.10;4.60;;;;;;;;;;4902967;29;20032;-88
2022/05/04 20:07:34;;;;;;;7.13;5.20;;;;;;;;;;4902995;29;20060;-89
2022/05/04 20:09:59;;;;;;;7.93;5.15;;;;;;;;;;4904129;29;20032;-88
2022/05/04 20:12:25;;;;;;;9.27;4.95;;;;;;;;;;4904051;29;20060;-88
2022/05/04 20:14:50;;;;;;;5.00;4.50;;;;;;;;;;4903196;29;20025;-89
2022/05/04 20:17:15;;;;;;;5.22;4.13;;;;;;;;;;4903026;29;20039;-88
2022/05/04 20:19:41;;;;;;;5.15;4.72;;;;;;;;;;4904418;29;20037;-88
2022/05/04 20:22:08;;;;;;;5.05;4.55;;;;;;;;;;4904360;29;20027;-88
2022/05/04 20:24:34;;;;;;;7.57;4.35;;;;;;;;;;4900952;29;20055;-87
2022/05/04 20:27:00;;;;;;;6.13;4.45;;;;;;;;;;4901261;29;20468;-88
2022/05/04 20:29:25;;;;;;;6.18;5.57;;;;;;;;;;4901447;29;20040;-88
2022/05/04 20:31:50;;;;;;;5.28;4.70;;;;;;;;;;4901606;29;20088;-89
2022/05/04 20:34:16;;;;;;;4.95;4.35;;;;;;;;;;4899854;29;20028;-89
2022/05/04 20:36:41;;;;;;;5.18;4.18;;;;;;;;;;4900840;29;20076;-89
2022/05/04 20:39:07;;;;;;;4.68;4.28;;;;;;;;;;4901011;29;20435;-89
2022/05/04 20:41:35;;;;;;;7.38;4.60;;;;;;;;;;4901017;29;20033;-93
2022/05/04 20:44:03;;;;;;;5.25;4.75;;;;;;;;;;4899990;29;20396;-92
2022/05/04 20:46:30;;;;;;;4.75;4.32;;;;;;;;;;4900842;29;20059;-90
2022/05/04 20:48:57;;;;;;;4.82;4.43;;;;;;;;;;4899508;29;20040;-91
2022/05/04 20:54:08;;;;;;;5.75;4.60;;;;;;;;;;4900945;29;20511;-89
2022/05/04 20:56:35;;;;;;;4.82;4.35;;;;;;;;;;4899656;29;20156;-88
2022/05/04 20:59:00;;;;;;;5.85;4.60;;;;;;;;;;4899631;29;20123;-90
2022/05/04 21:01:26;;;;;;;5.38;4.88;;;;;;;;;;4900689;29;20108;-92
2022/05/04 21:03:52;;;;;;;5.47;4.97;;;;;;;;;;4900497;29;20528;-90
2022/05/04 21:06:17;;;;;;;7.10;5.22;;;;;;;;;;4900977;29;20068;-89
2022/05/04 21:08:43;;;;;;;7.43;5.40;;;;;;;;;;4899489;29;20470;-89
2022/05/04 21:11:08;;;;;;;7.43;5.05;;;;;;;;;;4900521;29;20407;-90
2022/05/04 21:13:34;;;;;;;5.70;5.10;;;;;;;;;;4900985;29;20491;-90
2022/05/04 21:16:00;;;;;;;7.53;5.72;;;;;;;;;;4900327;29;20107;-88
2022/05/04 21:18:26;;;;;;;4.75;4.35;;;;;;;;;;4900314;29;20035;-89
2022/05/04 21:20:58;;;;;;;6.00;4.72;;;;;;;;;;4900448;29;20108;-92
2022/05/04 21:23:24;;;;;;;6.30;4.38;;;;;;;;;;4900209;29;20132;-90
2022/05/04 21:25:49;;;;;;;6.50;4.75;;;;;;;;;;4898906;29;20535;-90
2022/05/04 21:28:14;;;;;;;7.28;5.28;;;;;;;;;;4900177;29;20032;-90
2022/05/04 21:30:40;;;;;;;6.30;5.55;;;;;;;;;;4899917;29;20050;-91
2022/05/04 21:33:06;;;;;;;5.15;4.50;;;;;;;;;;4899962;29;20046;-92
2022/05/04 21:35:32;;;;;;;4.47;4.07;;;;;;;;;;4897461;29;20056;-92
2022/05/04 21:37:58;;;;;;;5.97;4.82;;;;;;;;;;4898853;29;20084;-91
2022/05/04 21:40:24;;;;;;;5.65;4.35;;;;;;;;;;4899937;29;20084;-90
2022/05/04 21:42:50;;;;;;;5.10;4.60;;;;;;;;;;4899977;29;20024;-90
2022/05/04 21:45:16;;;;;;;6.55;4.70;;;;;;;;;;4899837;29;20029;-90
2022/05/04 21:47:41;;;;;;;4.90;4.50;;;;;;;;;;4898661;29;20036;-90
2022/05/04 21:50:07;;;;;;;6.75;4.57;;;;;;;;;;4899533;29;20115;-90
2022/05/04 21:52:33;;;;;;;6.60;5.00;;;;;;;;;;4899423;29;20495;-91
2022/05/04 21:54:59;;;;;;;5.43;4.93;;;;;;;;;;4899702;29;20109;-91
2022/05/04 21:57:24;;;;;;;4.63;4.20;;;;;;;;;;4899914;29;20035;-93
2022/05/04 21:59:50;;;;;;;4.93;4.47;;;;;;;;;;4899692;29;20036;-91
2022/05/04 22:02:15;;;;;;;8.38;5.10;;;;;;;;;;4898349;29;20476;-90
2022/05/04 22:04:41;;;;;;;5.32;4.82;;;;;;;;;;4898290;29;20068;-90
2022/05/04 22:07:06;;;;;;;5.15;4.65;;;;;;;;;;4898399;29;20135;-90
2022/05/04 22:09:32;;;;;;;5.93;5.25;;;;;;;;;;4899212;29;20451;-89
